sensor_id;sensor_type;location;lat;lon;timestamp;temperature;humidity
1415;DHT22;702;49.466;11.086;2023-08-17T00:02:05;21.10;93.20
1415;DHT22;702;49.466;11.086;2023-08-17T00:04:32;21.10;93.10
1415;DHT22;702;49.466;11.086;2023-08-17T00:06:59;21.10;93.10
1415;DHT22;702;49.466;11.086;2023-08-17T00:09:26;21.10;93.00
1415;DHT22;702;49.466;11.086;2023-08-17T00:11:55;21.10;93.00
1415;DHT22;702;49.466;11.086;2023-08-17T00:14:22;21.10;93.00
1415;DHT22;702;49.466;11.086;2023-08-17T00:16:50;21.10;93.00
1415;DHT22;702;49.466;11.086;2023-08-17T00:19:17;21.10;93.00
1415;DHT22;702;49.466;11.086;2023-08-17T00:21:45;21.10;93.00
1415;DHT22;702;49.466;11.086;2023-08-17T00:24:12;21.20;93.00
1415;DHT22;702;49.466;11.086;2023-08-17T00:26:39;21.20;92.90
1415;DHT22;702;49.466;11.086;2023-08-17T00:29:08;21.20;92.90
1415;DHT22;702;49.466;11.086;2023-08-17T00:31:35;21.20;92.90
1415;DHT22;702;49.466;11.086;2023-08-17T00:34:02;21.20;93.00
1415;DHT22;702;49.466;11.086;2023-08-17T00:36:30;21.10;92.90
1415;DHT22;702;49.466;11.086;2023-08-17T00:38:57;21.20;93.00
1415;DHT22;702;49.466;11.086;2023-08-17T00:41:24;21.20;93.00
1415;DHT22;702;49.466;11.086;2023-08-17T00:43:52;21.20;93.00
1415;DHT22;702;49.466;11.086;2023-08-17T00:46:20;21.20;93.20
1415;DHT22;702;49.466;11.086;2023-08-17T00:48:49;21.20;93.20
1415;DHT22;702;49.466;11.086;2023-08-17T00:51:16;21.10;93.20
1415;DHT22;702;49.466;11.086;2023-08-17T00:53:46;21.10;93.50
1415;DHT22;702;49.466;11.086;2023-08-17T00:56:13;21.10;93.60
1415;DHT22;702;49.466;11.086;2023-08-17T00:58:40;21.00;93.40
1415;DHT22;702;49.466;11.086;2023-08-17T01:01:09;21.00;93.70
1415;DHT22;702;49.466;11.086;2023-08-17T01:03:37;20.90;93.80
1415;DHT22;702;49.466;11.086;2023-08-17T01:06:08;20.80;94.20
1415;DHT22;702;49.466;11.086;2023-08-17T01:08:35;20.80;94.60
1415;DHT22;702;49.466;11.086;2023-08-17T01:11:12;20.70;94.90
1415;DHT22;702;49.466;11.086;2023-08-17T01:13:51;20.60;94.90
1415;DHT22;702;49.466;11.086;2023-08-17T01:16:26;20.50;95.60
1415;DHT22;702;49.466;11.086;2023-08-17T01:18:58;20.60;95.00
1415;DHT22;702;49.466;11.086;2023-08-17T01:21:32;20.60;95.00
1415;DHT22;702;49.466;11.086;2023-08-17T01:24:05;20.60;95.30
1415;DHT22;702;49.466;11.086;2023-08-17T01:26:33;20.40;96.10
1415;DHT22;702;49.466;11.086;2023-08-17T01:29:00;20.30;96.10
1415;DHT22;702;49.466;11.086;2023-08-17T01:31:30;20.30;96.60
1415;DHT22;702;49.466;11.086;2023-08-17T01:34:04;20.40;96.00
1415;DHT22;702;49.466;11.086;2023-08-17T01:36:37;20.30;96.10
1415;DHT22;702;49.466;11.086;2023-08-17T01:39:08;20.20;96.40
1415;DHT22;702;49.466;11.086;2023-08-17T01:41:37;20.30;96.50
1415;DHT22;702;49.466;11.086;2023-08-17T01:44:06;20.20;96.70
1415;DHT22;702;49.466;11.086;2023-08-17T01:46:34;20.30;96.50
1415;DHT22;702;49.466;11.086;2023-08-17T01:49:01;20.30;96.00
1415;DHT22;702;49.466;11.086;2023-08-17T01:51:28;20.40;95.70
1415;DHT22;702;49.466;11.086;2023-08-17T01:53:55;20.40;95.50
1415;DHT22;702;49.466;11.086;2023-08-17T01:56:24;20.30;95.80
1415;DHT22;702;49.466;11.086;2023-08-17T01:58:51;20.50;95.20
1415;DHT22;702;49.466;11.086;2023-08-17T02:01:18;20.50;95.20
1415;DHT22;702;49.466;11.086;2023-08-17T02:03:45;20.50;95.10
1415;DHT22;702;49.466;11.086;2023-08-17T02:06:13;20.40;95.50
1415;DHT22;702;49.466;11.086;2023-08-17T02:08:41;20.40;95.30
1415;DHT22;702;49.466;11.086;2023-08-17T02:11:08;20.50;95.30
1415;DHT22;702;49.466;11.086;2023-08-17T02:13:37;20.60;94.70
1415;DHT22;702;49.466;11.086;2023-08-17T02:16:04;20.60;94.90
1415;DHT22;702;49.466;11.086;2023-08-17T02:18:32;20.50;94.90
1415;DHT22;702;49.466;11.086;2023-08-17T02:21:00;20.60;95.00
1415;DHT22;702;49.466;11.086;2023-08-17T02:23:27;20.70;94.70
1415;DHT22;702;49.466;11.086;2023-08-17T02:25:55;20.60;95.00
1415;DHT22;702;49.466;11.086;2023-08-17T02:28:22;20.70;94.80
1415;DHT22;702;49.466;11.086;2023-08-17T02:30:54;20.70;94.60
1415;DHT22;702;49.466;11.086;2023-08-17T02:33:22;20.80;94.00
1415;DHT22;702;49.466;11.086;2023-08-17T02:35:50;20.80;94.20
1415;DHT22;702;49.466;11.086;2023-08-17T02:38:18;20.90;94.00
1415;DHT22;702;49.466;11.086;2023-08-17T02:40:45;20.90;94.00
1415;DHT22;702;49.466;11.086;2023-08-17T02:43:12;20.90;94.00
1415;DHT22;702;49.466;11.086;2023-08-17T02:45:39;20.90;93.70
1415;DHT22;702;49.466;11.086;2023-08-17T02:48:08;20.90;93.60
1415;DHT22;702;49.466;11.086;2023-08-17T02:50:35;20.90;93.70
1415;DHT22;702;49.466;11.086;2023-08-17T02:53:02;20.90;93.80
1415;DHT22;702;49.466;11.086;2023-08-17T02:55:30;20.90;93.70
1415;DHT22;702;49.466;11.086;2023-08-17T02:57:57;20.80;93.80
1415;DHT22;702;49.466;11.086;2023-08-17T03:00:24;20.80;94.10
1415;DHT22;702;49.466;11.086;2023-08-17T03:02:51;20.70;94.40
1415;DHT22;702;49.466;11.086;2023-08-17T03:05:20;20.70;94.30
1415;DHT22;702;49.466;11.086;2023-08-17T03:07:47;20.70;94.20
1415;DHT22;702;49.466;11.086;2023-08-17T03:10:14;20.70;94.20
1415;DHT22;702;49.466;11.086;2023-08-17T03:12:42;20.70;94.40
1415;DHT22;702;49.466;11.086;2023-08-17T03:15:09;20.70;94.40
1415;DHT22;702;49.466;11.086;2023-08-17T03:17:37;20.60;94.50
1415;DHT22;702;49.466;11.086;2023-08-17T03:20:05;20.50;94.60
1415;DHT22;702;49.466;11.086;2023-08-17T03:22:34;20.50;95.10
1415;DHT22;702;49.466;11.086;2023-08-17T03:25:01;20.40;95.10
1415;DHT22;702;49.466;11.086;2023-08-17T03:27:29;20.40;95.20
1415;DHT22;702;49.466;11.086;2023-08-17T03:29:56;20.30;95.50
1415;DHT22;702;49.466;11.086;2023-08-17T03:32:24;20.30;95.60
1415;DHT22;702;49.466;11.086;2023-08-17T03:34:51;20.30;95.60
1415;DHT22;702;49.466;11.086;2023-08-17T03:37:18;20.30;95.60
1415;DHT22;702;49.466;11.086;2023-08-17T03:39:46;20.40;95.80
1415;DHT22;702;49.466;11.086;2023-08-17T03:42:13;20.40;95.30
1415;DHT22;702;49.466;11.086;2023-08-17T03:44:40;20.40;95.20
1415;DHT22;702;49.466;11.086;2023-08-17T03:47:08;20.40;95.20
1415;DHT22;702;49.466;11.086;2023-08-17T03:49:35;20.40;95.30
1415;DHT22;702;49.466;11.086;2023-08-17T03:52:02;20.40;95.30
1415;DHT22;702;49.466;11.086;2023-08-17T03:54:29;20.40;95.30
1415;DHT22;702;49.466;11.086;2023-08-17T03:56:58;20.30;95.40
1415;DHT22;702;49.466;11.086;2023-08-17T03:59:25;20.30;95.70
1415;DHT22;702;49.466;11.086;2023-08-17T04:01:52;20.30;95.70
1415;DHT22;702;49.466;11.086;2023-08-17T04:04:19;20.30;95.70
1415;DHT22;702;49.466;11.086;2023-08-17T04:06:46;20.30;95.60
1415;DHT22;702;49.466;11.086;2023-08-17T04:09:14;20.30;95.60
1415;DHT22;702;49.466;11.086;2023-08-17T04:11:41;20.20;95.90
1415;DHT22;702;49.466;11.086;2023-08-17T04:14:09;20.20;95.70
1415;DHT22;702;49.466;11.086;2023-08-17T04:16:38;20.20;96.00
1415;DHT22;702;49.466;11.086;2023-08-17T04:19:05;20.10;96.10
1415;DHT22;702;49.466;11.086;2023-08-17T04:21:32;20.00;96.50
1415;DHT22;702;49.466;11.086;2023-08-17T04:23:59;20.00;96.70
1415;DHT22;702;49.466;11.086;2023-08-17T04:26:26;20.00;96.70
1415;DHT22;702;49.466;11.086;2023-08-17T04:28:53;20.00;96.80
1415;DHT22;702;49.466;11.086;2023-08-17T04:31:22;19.90;96.90
1415;DHT22;702;49.466;11.086;2023-08-17T04:33:49;19.90;97.20
1415;DHT22;702;49.466;11.086;2023-08-17T04:36:16;19.90;97.40
1415;DHT22;702;49.466;11.086;2023-08-17T04:38:43;19.90;97.60
1415;DHT22;702;49.466;11.086;2023-08-17T04:41:11;19.90;97.40
1415;DHT22;702;49.466;11.086;2023-08-17T04:43:38;19.80;97.50
1415;DHT22;702;49.466;11.086;2023-08-17T04:46:05;19.80;97.70
1415;DHT22;702;49.466;11.086;2023-08-17T04:48:34;19.80;97.80
1415;DHT22;702;49.466;11.086;2023-08-17T04:51:01;19.80;98.20
1415;DHT22;702;49.466;11.086;2023-08-17T04:53:29;19.80;98.00
1415;DHT22;702;49.466;11.086;2023-08-17T04:55:58;19.80;97.80
1415;DHT22;702;49.466;11.086;2023-08-17T04:58:25;19.80;97.80
1415;DHT22;702;49.466;11.086;2023-08-17T05:00:52;19.90;97.60
1415;DHT22;702;49.466;11.086;2023-08-17T05:03:19;19.90;97.90
1415;DHT22;702;49.466;11.086;2023-08-17T05:05:48;19.90;97.70
1415;DHT22;702;49.466;11.086;2023-08-17T05:08:15;19.90;97.20
1415;DHT22;702;49.466;11.086;2023-08-17T05:10:42;19.90;97.40
1415;DHT22;702;49.466;11.086;2023-08-17T05:13:09;20.00;97.90
1415;DHT22;702;49.466;11.086;2023-08-17T05:15:36;20.20;97.80
1415;DHT22;702;49.466;11.086;2023-08-17T05:18:04;21.10;95.00
1415;DHT22;702;49.466;11.086;2023-08-17T05:20:31;22.20;92.40
1415;DHT22;702;49.466;11.086;2023-08-17T05:23:00;22.80;91.10
1415;DHT22;702;49.466;11.086;2023-08-17T05:25:27;23.00;90.50
1415;DHT22;702;49.466;11.086;2023-08-17T05:27:55;23.30;90.20
1415;DHT22;702;49.466;11.086;2023-08-17T05:30:22;23.60;89.60
1415;DHT22;702;49.466;11.086;2023-08-17T05:32:49;23.80;88.90
1415;DHT22;702;49.466;11.086;2023-08-17T05:35:16;24.30;87.70
1415;DHT22;702;49.466;11.086;2023-08-17T05:37:44;24.70;87.30
1415;DHT22;702;49.466;11.086;2023-08-17T05:40:13;25.10;86.10
1415;DHT22;702;49.466;11.086;2023-08-17T05:42:40;25.50;85.10
1415;DHT22;702;49.466;11.086;2023-08-17T05:45:08;25.40;84.60
1415;DHT22;702;49.466;11.086;2023-08-17T05:47:36;25.30;84.60
1415;DHT22;702;49.466;11.086;2023-08-17T05:50:03;25.00;84.90
1415;DHT22;702;49.466;11.086;2023-08-17T05:52:32;25.00;85.20
1415;DHT22;702;49.466;11.086;2023-08-17T05:54:59;25.20;84.60
1415;DHT22;702;49.466;11.086;2023-08-17T05:57:28;25.50;84.00
1415;DHT22;702;49.466;11.086;2023-08-17T05:59:55;24.90;84.60
1415;DHT22;702;49.466;11.086;2023-08-17T06:02:22;24.20;85.70
1415;DHT22;702;49.466;11.086;2023-08-17T06:04:49;23.60;87.20
1415;DHT22;702;49.466;11.086;2023-08-17T06:07:16;23.10;88.50
1415;DHT22;702;49.466;11.086;2023-08-17T06:09:43;22.70;89.00
1415;DHT22;702;49.466;11.086;2023-08-17T06:12:10;22.50;90.00
1415;DHT22;702;49.466;11.086;2023-08-17T06:14:39;22.50;90.10
1415;DHT22;702;49.466;11.086;2023-08-17T06:17:08;22.50;90.10
1415;DHT22;702;49.466;11.086;2023-08-17T06:19:35;22.50;90.00
1415;DHT22;702;49.466;11.086;2023-08-17T06:22:02;22.60;90.20
1415;DHT22;702;49.466;11.086;2023-08-17T06:24:29;22.60;90.10
1415;DHT22;702;49.466;11.086;2023-08-17T06:26:57;22.70;90.00
1415;DHT22;702;49.466;11.086;2023-08-17T06:29:24;22.80;90.00
1415;DHT22;702;49.466;11.086;2023-08-17T06:31:52;22.90;90.00
1415;DHT22;702;49.466;11.086;2023-08-17T06:34:20;22.90;90.00
1415;DHT22;702;49.466;11.086;2023-08-17T06:36:57;23.00;89.80
1415;DHT22;702;49.466;11.086;2023-08-17T06:39:25;23.10;89.80
1415;DHT22;702;49.466;11.086;2023-08-17T06:41:52;23.20;89.50
1415;DHT22;702;49.466;11.086;2023-08-17T06:44:19;23.20;89.70
1415;DHT22;702;49.466;11.086;2023-08-17T06:46:47;23.10;89.50
1415;DHT22;702;49.466;11.086;2023-08-17T06:49:15;23.20;89.70
1415;DHT22;702;49.466;11.086;2023-08-17T06:51:42;23.30;89.20
1415;DHT22;702;49.466;11.086;2023-08-17T06:54:10;23.20;89.40
1415;DHT22;702;49.466;11.086;2023-08-17T06:56:37;23.30;89.50
1415;DHT22;702;49.466;11.086;2023-08-17T06:59:04;23.40;89.30
1415;DHT22;702;49.466;11.086;2023-08-17T07:01:32;23.40;89.50
1415;DHT22;702;49.466;11.086;2023-08-17T07:04:00;23.40;89.10
1415;DHT22;702;49.466;11.086;2023-08-17T07:06:29;23.40;89.20
1415;DHT22;702;49.466;11.086;2023-08-17T07:08:56;23.30;89.00
1415;DHT22;702;49.466;11.086;2023-08-17T07:11:23;23.40;89.10
1415;DHT22;702;49.466;11.086;2023-08-17T07:13:50;23.50;89.00
1415;DHT22;702;49.466;11.086;2023-08-17T07:16:19;23.70;89.00
1415;DHT22;702;49.466;11.086;2023-08-17T07:18:46;23.90;88.90
1415;DHT22;702;49.466;11.086;2023-08-17T07:21:13;24.10;88.60
1415;DHT22;702;49.466;11.086;2023-08-17T07:23:45;24.20;88.30
1415;DHT22;702;49.466;11.086;2023-08-17T07:26:13;24.30;87.60
1415;DHT22;702;49.466;11.086;2023-08-17T07:28:40;24.40;87.80
1415;DHT22;702;49.466;11.086;2023-08-17T07:31:07;24.60;87.20
1415;DHT22;702;49.466;11.086;2023-08-17T07:33:34;24.70;87.30
1415;DHT22;702;49.466;11.086;2023-08-17T07:36:02;24.80;87.10
1415;DHT22;702;49.466;11.086;2023-08-17T07:38:30;24.80;86.80
1415;DHT22;702;49.466;11.086;2023-08-17T07:40:58;25.00;86.50
1415;DHT22;702;49.466;11.086;2023-08-17T07:43:26;25.20;86.10
1415;DHT22;702;49.466;11.086;2023-08-17T07:45:54;25.30;85.70
1415;DHT22;702;49.466;11.086;2023-08-17T07:48:21;25.40;85.80
1415;DHT22;702;49.466;11.086;2023-08-17T07:50:49;25.40;85.10
1415;DHT22;702;49.466;11.086;2023-08-17T07:53:17;25.40;85.00
1415;DHT22;702;49.466;11.086;2023-08-17T07:55:44;25.60;84.70
1415;DHT22;702;49.466;11.086;2023-08-17T07:58:13;25.60;84.80
1415;DHT22;702;49.466;11.086;2023-08-17T08:00:40;25.60;84.60
1415;DHT22;702;49.466;11.086;2023-08-17T08:03:07;25.70;84.10
1415;DHT22;702;49.466;11.086;2023-08-17T08:05:35;25.80;83.70
1415;DHT22;702;49.466;11.086;2023-08-17T08:08:02;26.00;83.20
1415;DHT22;702;49.466;11.086;2023-08-17T08:10:29;26.10;82.20
1415;DHT22;702;49.466;11.086;2023-08-17T08:12:56;26.20;81.50
1415;DHT22;702;49.466;11.086;2023-08-17T08:15:25;26.40;81.50
1415;DHT22;702;49.466;11.086;2023-08-17T08:17:52;26.40;81.60
1415;DHT22;702;49.466;11.086;2023-08-17T08:20:20;26.50;81.10
1415;DHT22;702;49.466;11.086;2023-08-17T08:22:47;26.60;80.30
1415;DHT22;702;49.466;11.086;2023-08-17T08:25:15;26.40;80.30
1415;DHT22;702;49.466;11.086;2023-08-17T08:27:42;26.50;80.40
1415;DHT22;702;49.466;11.086;2023-08-17T08:30:10;26.70;79.60
1415;DHT22;702;49.466;11.086;2023-08-17T08:32:38;26.80;79.30
1415;DHT22;702;49.466;11.086;2023-08-17T08:35:06;26.80;78.70
1415;DHT22;702;49.466;11.086;2023-08-17T08:37:34;26.70;78.70
1415;DHT22;702;49.466;11.086;2023-08-17T08:40:01;26.80;78.00
1415;DHT22;702;49.466;11.086;2023-08-17T08:42:28;26.90;77.60
1415;DHT22;702;49.466;11.086;2023-08-17T08:44:56;26.80;77.60
1415;DHT22;702;49.466;11.086;2023-08-17T08:47:23;26.90;77.60
1415;DHT22;702;49.466;11.086;2023-08-17T08:49:59;27.00;78.50
1415;DHT22;702;49.466;11.086;2023-08-17T08:52:33;27.00;78.10
1415;DHT22;702;49.466;11.086;2023-08-17T08:55:09;27.10;78.40
1415;DHT22;702;49.466;11.086;2023-08-17T08:57:38;27.20;77.60
1415;DHT22;702;49.466;11.086;2023-08-17T09:00:07;27.20;77.60
1415;DHT22;702;49.466;11.086;2023-08-17T09:02:35;27.30;78.00
1415;DHT22;702;49.466;11.086;2023-08-17T09:05:05;27.30;77.40
1415;DHT22;702;49.466;11.086;2023-08-17T09:07:33;27.30;77.50
1415;DHT22;702;49.466;11.086;2023-08-17T09:10:02;27.40;77.40
1415;DHT22;702;49.466;11.086;2023-08-17T09:12:30;27.50;77.20
1415;DHT22;702;49.466;11.086;2023-08-17T09:14:58;27.80;76.80
1415;DHT22;702;49.466;11.086;2023-08-17T09:17:25;27.90;76.70
1415;DHT22;702;49.466;11.086;2023-08-17T09:19:54;27.90;76.40
1415;DHT22;702;49.466;11.086;2023-08-17T09:22:36;28.00;76.10
1415;DHT22;702;49.466;11.086;2023-08-17T09:25:05;28.10;76.00
1415;DHT22;702;49.466;11.086;2023-08-17T09:27:33;28.20;75.40
1415;DHT22;702;49.466;11.086;2023-08-17T09:30:02;28.30;75.50
1415;DHT22;702;49.466;11.086;2023-08-17T09:32:30;28.30;75.30
1415;DHT22;702;49.466;11.086;2023-08-17T09:35:01;28.40;75.10
1415;DHT22;702;49.466;11.086;2023-08-17T09:37:30;28.20;74.80
1415;DHT22;702;49.466;11.086;2023-08-17T09:39:58;28.10;74.80
1415;DHT22;702;49.466;11.086;2023-08-17T09:42:25;28.10;75.00
1415;DHT22;702;49.466;11.086;2023-08-17T09:44:53;28.20;74.80
1415;DHT22;702;49.466;11.086;2023-08-17T09:47:22;28.30;74.70
1415;DHT22;702;49.466;11.086;2023-08-17T09:49:50;28.10;74.50
1415;DHT22;702;49.466;11.086;2023-08-17T09:52:19;28.20;75.60
1415;DHT22;702;49.466;11.086;2023-08-17T09:54:48;28.30;74.90
1415;DHT22;702;49.466;11.086;2023-08-17T09:57:16;28.40;74.80
1415;DHT22;702;49.466;11.086;2023-08-17T09:59:43;28.30;74.90
1415;DHT22;702;49.466;11.086;2023-08-17T10:02:18;28.40;74.40
1415;DHT22;702;49.466;11.086;2023-08-17T10:04:49;28.60;74.20
1415;DHT22;702;49.466;11.086;2023-08-17T10:07:19;28.70;74.10
1415;DHT22;702;49.466;11.086;2023-08-17T10:09:54;28.70;73.80
1415;DHT22;702;49.466;11.086;2023-08-17T10:12:26;28.60;73.50
1415;DHT22;702;49.466;11.086;2023-08-17T10:14:58;28.40;73.40
1415;DHT22;702;49.466;11.086;2023-08-17T10:17:27;28.40;73.60
1415;DHT22;702;49.466;11.086;2023-08-17T10:19:58;28.50;73.90
1415;DHT22;702;49.466;11.086;2023-08-17T10:22:32;28.70;73.80
1415;DHT22;702;49.466;11.086;2023-08-17T10:25:04;28.80;73.70
1415;DHT22;702;49.466;11.086;2023-08-17T10:27:34;28.90;73.30
1415;DHT22;702;49.466;11.086;2023-08-17T10:30:02;29.00;73.10
1415;DHT22;702;49.466;11.086;2023-08-17T10:32:31;29.10;72.80
1415;DHT22;702;49.466;11.086;2023-08-17T10:34:59;29.00;72.50
1415;DHT22;702;49.466;11.086;2023-08-17T10:37:26;29.30;72.70
1415;DHT22;702;49.466;11.086;2023-08-17T10:39:54;29.10;72.10
1415;DHT22;702;49.466;11.086;2023-08-17T10:42:32;29.10;72.00
1415;DHT22;702;49.466;11.086;2023-08-17T10:45:01;29.00;72.30
1415;DHT22;702;49.466;11.086;2023-08-17T10:47:30;28.80;72.20
1415;DHT22;702;49.466;11.086;2023-08-17T10:50:01;28.90;71.00
1415;DHT22;702;49.466;11.086;2023-08-17T10:52:31;29.10;70.80
1415;DHT22;702;49.466;11.086;2023-08-17T10:55:00;29.00;70.40
1415;DHT22;702;49.466;11.086;2023-08-17T10:57:34;29.10;70.40
1415;DHT22;702;49.466;11.086;2023-08-17T11:00:23;29.40;68.90
1415;DHT22;702;49.466;11.086;2023-08-17T11:02:54;29.30;69.80
1415;DHT22;702;49.466;11.086;2023-08-17T11:05:35;29.30;69.20
1415;DHT22;702;49.466;11.086;2023-08-17T11:08:08;29.40;69.00
1415;DHT22;702;49.466;11.086;2023-08-17T11:10:36;29.40;69.10
1415;DHT22;702;49.466;11.086;2023-08-17T11:13:05;29.40;68.80
1415;DHT22;702;49.466;11.086;2023-08-17T11:15:37;29.50;68.20
1415;DHT22;702;49.466;11.086;2023-08-17T11:18:06;29.70;68.70
1415;DHT22;702;49.466;11.086;2023-08-17T11:20:34;29.70;68.60
1415;DHT22;702;49.466;11.086;2023-08-17T11:23:02;29.60;69.10
1415;DHT22;702;49.466;11.086;2023-08-17T11:25:31;29.80;68.10
1415;DHT22;702;49.466;11.086;2023-08-17T11:28:00;29.90;67.60
1415;DHT22;702;49.466;11.086;2023-08-17T11:30:29;30.10;67.60
1415;DHT22;702;49.466;11.086;2023-08-17T11:32:57;30.20;67.00
1415;DHT22;702;49.466;11.086;2023-08-17T11:35:24;30.30;66.10
1415;DHT22;702;49.466;11.086;2023-08-17T11:37:51;30.20;65.80
1415;DHT22;702;49.466;11.086;2023-08-17T11:40:19;30.20;65.50
1415;DHT22;702;49.466;11.086;2023-08-17T11:42:46;30.20;66.20
1415;DHT22;702;49.466;11.086;2023-08-17T11:45:13;30.40;65.50
1415;DHT22;702;49.466;11.086;2023-08-17T11:47:42;30.60;65.30
1415;DHT22;702;49.466;11.086;2023-08-17T11:50:11;30.50;65.10
1415;DHT22;702;49.466;11.086;2023-08-17T11:52:39;30.20;65.20
1415;DHT22;702;49.466;11.086;2023-08-17T11:55:08;30.40;65.00
1415;DHT22;702;49.466;11.086;2023-08-17T11:57:36;30.70;64.70
1415;DHT22;702;49.466;11.086;2023-08-17T12:00:05;30.80;63.80
1415;DHT22;702;49.466;11.086;2023-08-17T12:02:36;31.00;63.90
1415;DHT22;702;49.466;11.086;2023-08-17T12:05:09;30.70;63.10
1415;DHT22;702;49.466;11.086;2023-08-17T12:07:36;30.70;63.80
1415;DHT22;702;49.466;11.086;2023-08-17T12:10:04;30.80;63.20
1415;DHT22;702;49.466;11.086;2023-08-17T12:12:37;31.00;62.70
1415;DHT22;702;49.466;11.086;2023-08-17T12:15:06;31.20;62.30
1415;DHT22;702;49.466;11.086;2023-08-17T12:17:33;31.00;62.60
1415;DHT22;702;49.466;11.086;2023-08-17T12:20:02;30.90;62.50
1415;DHT22;702;49.466;11.086;2023-08-17T12:22:31;30.90;62.30
1415;DHT22;702;49.466;11.086;2023-08-17T12:24:58;30.70;61.60
1415;DHT22;702;49.466;11.086;2023-08-17T12:27:25;30.60;62.10
1415;DHT22;702;49.466;11.086;2023-08-17T12:29:52;30.80;62.60
1415;DHT22;702;49.466;11.086;2023-08-17T12:32:20;30.80;61.50
1415;DHT22;702;49.466;11.086;2023-08-17T12:34:47;30.70;61.70
1415;DHT22;702;49.466;11.086;2023-08-17T12:37:19;31.00;61.50
1415;DHT22;702;49.466;11.086;2023-08-17T12:39:48;31.10;61.90
1415;DHT22;702;49.466;11.086;2023-08-17T12:42:15;31.30;61.00
1415;DHT22;702;49.466;11.086;2023-08-17T12:44:44;31.20;60.60
1415;DHT22;702;49.466;11.086;2023-08-17T12:47:11;31.20;61.20
1415;DHT22;702;49.466;11.086;2023-08-17T12:49:38;31.30;60.20
1415;DHT22;702;49.466;11.086;2023-08-17T12:52:05;31.30;60.40
1415;DHT22;702;49.466;11.086;2023-08-17T12:54:32;31.20;60.60
1415;DHT22;702;49.466;11.086;2023-08-17T12:57:01;31.30;60.30
1415;DHT22;702;49.466;11.086;2023-08-17T12:59:29;31.40;59.50
1415;DHT22;702;49.466;11.086;2023-08-17T13:01:57;31.50;58.90
1415;DHT22;702;49.466;11.086;2023-08-17T13:04:24;31.60;59.20
1415;DHT22;702;49.466;11.086;2023-08-17T13:06:51;31.60;59.30
1415;DHT22;702;49.466;11.086;2023-08-17T13:09:19;31.80;59.50
1415;DHT22;702;49.466;11.086;2023-08-17T13:11:46;32.00;58.20
1415;DHT22;702;49.466;11.086;2023-08-17T13:14:15;31.90;58.50
1415;DHT22;702;49.466;11.086;2023-08-17T13:16:42;32.00;58.80
1415;DHT22;702;49.466;11.086;2023-08-17T13:19:09;31.80;58.40
1415;DHT22;702;49.466;11.086;2023-08-17T13:21:37;31.80;58.20
1415;DHT22;702;49.466;11.086;2023-08-17T13:24:04;31.70;58.60
1415;DHT22;702;49.466;11.086;2023-08-17T13:26:32;31.60;58.40
1415;DHT22;702;49.466;11.086;2023-08-17T13:28:59;31.20;57.60
1415;DHT22;702;49.466;11.086;2023-08-17T13:31:28;31.30;57.10
1415;DHT22;702;49.466;11.086;2023-08-17T13:33:56;31.50;57.40
1415;DHT22;702;49.466;11.086;2023-08-17T13:36:23;31.80;56.50
1415;DHT22;702;49.466;11.086;2023-08-17T13:38:50;32.00;57.20
1415;DHT22;702;49.466;11.086;2023-08-17T13:41:18;31.60;58.70
1415;DHT22;702;49.466;11.086;2023-08-17T13:43:45;31.40;58.60
1415;DHT22;702;49.466;11.086;2023-08-17T13:46:12;31.60;58.50
1415;DHT22;702;49.466;11.086;2023-08-17T13:48:40;31.70;57.90
1415;DHT22;702;49.466;11.086;2023-08-17T13:51:07;32.00;57.80
1415;DHT22;702;49.466;11.086;2023-08-17T13:53:35;32.10;57.90
1415;DHT22;702;49.466;11.086;2023-08-17T13:56:02;32.10;58.10
1415;DHT22;702;49.466;11.086;2023-08-17T13:58:30;32.20;58.30
1415;DHT22;702;49.466;11.086;2023-08-17T14:00:57;32.30;57.50
1415;DHT22;702;49.466;11.086;2023-08-17T14:03:25;32.40;57.10
1415;DHT22;702;49.466;11.086;2023-08-17T14:05:55;32.20;56.90
1415;DHT22;702;49.466;11.086;2023-08-17T14:08:22;32.00;57.40
1415;DHT22;702;49.466;11.086;2023-08-17T14:10:50;31.90;56.50
1415;DHT22;702;49.466;11.086;2023-08-17T14:13:17;31.70;57.40
1415;DHT22;702;49.466;11.086;2023-08-17T14:15:44;31.60;57.20
1415;DHT22;702;49.466;11.086;2023-08-17T14:18:11;31.60;56.70
1415;DHT22;702;49.466;11.086;2023-08-17T14:20:39;31.50;57.40
1415;DHT22;702;49.466;11.086;2023-08-17T14:23:07;31.50;57.50
1415;DHT22;702;49.466;11.086;2023-08-17T14:25:34;31.40;57.70
1415;DHT22;702;49.466;11.086;2023-08-17T14:28:04;31.40;58.40
1415;DHT22;702;49.466;11.086;2023-08-17T14:30:32;31.50;59.10
1415;DHT22;702;49.466;11.086;2023-08-17T14:33:00;31.70;58.80
1415;DHT22;702;49.466;11.086;2023-08-17T14:35:27;31.70;58.80
1415;DHT22;702;49.466;11.086;2023-08-17T14:37:55;31.70;58.80
1415;DHT22;702;49.466;11.086;2023-08-17T14:40:25;31.60;58.90
1415;DHT22;702;49.466;11.086;2023-08-17T14:42:52;31.60;58.80
1415;DHT22;702;49.466;11.086;2023-08-17T14:45:20;31.70;59.70
1415;DHT22;702;49.466;11.086;2023-08-17T14:47:47;31.50;58.90
1415;DHT22;702;49.466;11.086;2023-08-17T14:50:14;31.10;59.20
1415;DHT22;702;49.466;11.086;2023-08-17T14:52:41;30.80;59.50
1415;DHT22;702;49.466;11.086;2023-08-17T14:55:08;30.60;59.80
1415;DHT22;702;49.466;11.086;2023-08-17T14:57:38;30.50;59.90
1415;DHT22;702;49.466;11.086;2023-08-17T15:00:07;30.50;60.40
1415;DHT22;702;49.466;11.086;2023-08-17T15:02:36;30.40;60.60
1415;DHT22;702;49.466;11.086;2023-08-17T15:05:05;30.40;60.90
1415;DHT22;702;49.466;11.086;2023-08-17T15:07:32;30.20;60.80
1415;DHT22;702;49.466;11.086;2023-08-17T15:10:00;30.10;61.20
1415;DHT22;702;49.466;11.086;2023-08-17T15:12:27;30.00;61.10
1415;DHT22;702;49.466;11.086;2023-08-17T15:14:56;29.90;61.40
1415;DHT22;702;49.466;11.086;2023-08-17T15:17:23;29.80;62.00
1415;DHT22;702;49.466;11.086;2023-08-17T15:19:50;29.80;61.20
1415;DHT22;702;49.466;11.086;2023-08-17T15:22:17;29.80;61.50
1415;DHT22;702;49.466;11.086;2023-08-17T15:24:45;29.60;62.40
1415;DHT22;702;49.466;11.086;2023-08-17T15:27:13;29.40;62.10
1415;DHT22;702;49.466;11.086;2023-08-17T15:29:40;29.40;62.00
1415;DHT22;702;49.466;11.086;2023-08-17T15:32:09;29.40;62.40
1415;DHT22;702;49.466;11.086;2023-08-17T15:34:36;29.20;62.20
1415;DHT22;702;49.466;11.086;2023-08-17T15:37:05;29.20;62.50
1415;DHT22;702;49.466;11.086;2023-08-17T15:39:32;29.20;64.50
1415;DHT22;702;49.466;11.086;2023-08-17T15:42:00;28.00;70.70
1415;DHT22;702;49.466;11.086;2023-08-17T15:44:27;24.90;74.90
1415;DHT22;702;49.466;11.086;2023-08-17T15:46:56;23.60;82.60
1415;DHT22;702;49.466;11.086;2023-08-17T15:49:25;23.00;86.70
1415;DHT22;702;49.466;11.086;2023-08-17T15:51:52;22.60;92.40
1415;DHT22;702;49.466;11.086;2023-08-17T15:54:19;22.70;94.10
1415;DHT22;702;49.466;11.086;2023-08-17T15:56:46;22.60;90.30
1415;DHT22;702;49.466;11.086;2023-08-17T15:59:13;22.40;90.60
1415;DHT22;702;49.466;11.086;2023-08-17T16:01:41;22.40;92.30
1415;DHT22;702;49.466;11.086;2023-08-17T16:04:08;22.30;94.10
1415;DHT22;702;49.466;11.086;2023-08-17T16:06:36;22.20;95.40
1415;DHT22;702;49.466;11.086;2023-08-17T16:09:08;22.00;96.20